createdAt,value
2018-09-05T00:00:11.248Z,18.90
2018-09-05T00:02:39.373Z,18.90
2018-09-05T00:05:07.253Z,18.90
2018-09-05T00:07:34.984Z,18.90
2018-09-05T00:10:03.801Z,18.90
2018-09-05T00:12:31.760Z,18.90
2018-09-05T00:14:59.701Z,18.90
2018-09-05T00:17:28.496Z,18.90
2018-09-05T00:19:56.285Z,18.90
2018-09-05T00:22:23.990Z,18.90
2018-09-05T00:24:51.801Z,18.90
2018-09-05T00:27:19.542Z,18.90
2018-09-05T00:29:47.304Z,18.90
2018-09-05T00:32:15.105Z,18.90
2018-09-05T00:34:42.805Z,18.90
2018-09-05T00:38:40.077Z,18.80
2018-09-05T00:41:07.868Z,18.80
2018-09-05T00:43:36.837Z,18.70
2018-09-05T00:46:04.640Z,18.70
2018-09-05T00:48:32.389Z,18.70
2018-09-05T00:51:00.184Z,18.70
2018-09-05T00:53:27.929Z,18.60
2018-09-05T00:55:55.645Z,18.60
2018-09-05T00:58:23.461Z,18.50
2018-09-05T01:00:51.419Z,18.60
2018-09-05T01:03:19.344Z,18.60
2018-09-05T01:05:47.163Z,18.60
2018-09-05T01:08:14.945Z,18.60
2018-09-05T01:10:42.688Z,18.60
2018-09-05T01:13:10.448Z,18.60
2018-09-05T01:15:39.073Z,18.60
2018-09-05T01:18:06.829Z,18.60
2018-09-05T01:20:35.781Z,18.50
2018-09-05T01:23:03.594Z,18.50
2018-09-05T01:25:31.305Z,18.60
2018-09-05T01:27:59.112Z,18.50
2018-09-05T01:30:28.929Z,18.50
2018-09-05T01:32:57.559Z,18.50
2018-09-05T01:35:26.443Z,18.50
2018-09-05T01:37:55.167Z,18.40
2018-09-05T01:40:23.961Z,18.40
2018-09-05T01:42:51.700Z,18.50
2018-09-05T01:45:19.448Z,18.40
2018-09-05T01:47:47.249Z,18.40
2018-09-05T01:50:14.977Z,18.40
2018-09-05T01:52:42.769Z,18.30
2018-09-05T01:55:11.577Z,18.30
2018-09-05T01:57:39.288Z,18.30
2018-09-05T02:00:11.416Z,18.20
2018-09-05T02:02:39.121Z,18.20
2018-09-05T02:05:06.814Z,18.20
2018-09-05T02:07:34.580Z,18.20
2018-09-05T02:10:03.397Z,18.10
2018-09-05T02:12:31.114Z,18.10
2018-09-05T02:14:59.029Z,18.10
2018-09-05T02:17:26.769Z,18.10
2018-09-05T02:19:54.496Z,18.00
2018-09-05T02:22:22.292Z,18.10
2018-09-05T02:24:50.057Z,18.10
2018-09-05T02:27:17.792Z,18.10
2018-09-05T02:29:45.585Z,18.00
2018-09-05T02:32:13.369Z,18.00
2018-09-05T02:34:41.090Z,18.00
2018-09-05T02:37:08.900Z,18.00
2018-09-05T02:39:36.604Z,18.00
2018-09-05T02:42:04.387Z,17.90
2018-09-05T02:44:32.228Z,17.90
2018-09-05T02:46:59.959Z,17.90
2018-09-05T02:49:27.730Z,17.80
2018-09-05T02:51:55.433Z,17.80
2018-09-05T02:54:23.268Z,17.80
2018-09-05T02:56:51.001Z,17.80
2018-09-05T02:59:18.788Z,17.80
2018-09-05T03:01:47.561Z,17.80
2018-09-05T03:04:15.285Z,17.80
2018-09-05T03:06:44.036Z,17.90
2018-09-05T03:09:11.802Z,17.80
2018-09-05T03:11:40.524Z,17.90
2018-09-05T03:14:08.301Z,17.90
2018-09-05T03:16:36.110Z,17.90
2018-09-05T03:19:04.110Z,17.90
2018-09-05T03:21:32.640Z,17.80
2018-09-05T03:24:00.421Z,17.80
2018-09-05T03:26:28.141Z,17.80
2018-09-05T03:28:55.928Z,17.90
2018-09-05T03:31:23.719Z,17.90
2018-09-05T03:33:51.488Z,17.90
2018-09-05T03:36:19.234Z,17.90
2018-09-05T03:38:46.960Z,17.90
2018-09-05T03:41:15.707Z,17.90
2018-09-05T03:43:43.470Z,17.90
2018-09-05T03:46:11.233Z,18.00
2018-09-05T03:48:39.197Z,18.00
2018-09-05T03:51:07.969Z,18.00
2018-09-05T03:53:35.705Z,18.10
2018-09-05T03:56:03.477Z,18.10
2018-09-05T03:58:31.251Z,18.10
2018-09-05T04:00:59.020Z,18.10
2018-09-05T04:03:26.837Z,18.10
2018-09-05T04:05:55.573Z,18.10
2018-09-05T04:08:23.361Z,18.20
2018-09-05T04:10:51.081Z,18.20
2018-09-05T04:13:18.873Z,18.10
2018-09-05T04:15:46.599Z,18.10
2018-09-05T04:18:14.378Z,18.10
2018-09-05T04:20:42.490Z,18.10
2018-09-05T04:23:10.252Z,18.10
2018-09-05T04:25:37.968Z,18.10
2018-09-05T04:28:05.993Z,18.00
2018-09-05T04:30:33.739Z,18.00
2018-09-05T04:33:01.488Z,18.00
2018-09-05T04:35:29.284Z,18.00
2018-09-05T04:37:56.989Z,17.90
2018-09-05T04:40:24.769Z,17.90
2018-09-05T04:42:52.588Z,17.90
2018-09-05T04:45:20.345Z,17.90
2018-09-05T04:47:49.137Z,17.90
2018-09-05T04:50:16.833Z,18.00
2018-09-05T04:52:44.788Z,18.00
2018-09-05T04:55:12.366Z,17.90
2018-09-05T04:57:40.209Z,17.90
2018-09-05T05:00:07.925Z,18.00
2018-09-05T05:02:36.853Z,18.00
2018-09-05T05:05:04.712Z,18.00
2018-09-05T05:07:33.513Z,18.00
2018-09-05T05:10:01.481Z,18.10
2018-09-05T05:12:29.230Z,18.10
2018-09-05T05:14:58.009Z,18.10
2018-09-05T05:17:25.757Z,18.10
2018-09-05T05:19:53.493Z,18.20
2018-09-05T05:22:21.305Z,18.20
2018-09-05T05:24:49.024Z,18.30
2018-09-05T05:27:16.852Z,18.30
2018-09-05T05:29:44.592Z,18.30
2018-09-05T05:32:12.360Z,18.30
2018-09-05T05:34:40.197Z,18.40
2018-09-05T05:37:07.990Z,18.50
2018-09-05T05:39:35.713Z,18.50
2018-09-05T05:42:03.502Z,18.50
2018-09-05T05:44:31.414Z,18.50
2018-09-05T05:46:59.145Z,18.50
2018-09-05T05:49:26.935Z,18.50
2018-09-05T05:51:54.648Z,18.60
2018-09-05T05:54:23.353Z,18.60
2018-09-05T05:56:51.081Z,18.70
2018-09-05T05:59:18.781Z,18.70
2018-09-05T06:01:46.581Z,18.70
2018-09-05T06:04:14.308Z,18.70
2018-09-05T06:06:42.055Z,18.70
2018-09-05T06:09:10.864Z,18.80
2018-09-05T06:11:38.672Z,18.80
2018-09-05T06:14:06.446Z,18.80
2018-09-05T06:16:34.230Z,18.80
2018-09-05T06:19:02.161Z,18.80
2018-09-05T06:21:29.886Z,18.90
2018-09-05T06:23:57.906Z,18.90
2018-09-05T06:26:25.590Z,18.90
2018-09-05T06:28:53.289Z,19.00
2018-09-05T06:31:21.297Z,19.00
2018-09-05T06:33:48.872Z,19.10
2018-09-05T06:36:16.568Z,19.10
2018-09-05T06:38:44.225Z,19.20
2018-09-05T06:41:11.929Z,19.20
2018-09-05T06:43:39.645Z,19.30
2018-09-05T06:46:07.456Z,19.30
2018-09-05T06:48:35.393Z,19.40
2018-09-05T06:51:05.477Z,19.50
2018-09-05T06:53:33.591Z,19.60
2018-09-05T06:56:01.801Z,19.60
2018-09-05T06:58:29.630Z,19.60
2018-09-05T07:00:57.369Z,19.70
2018-09-05T07:03:25.256Z,19.70
2018-09-05T07:05:53.000Z,19.70
2018-09-05T07:08:20.764Z,19.80
2018-09-05T07:10:48.767Z,19.80
2018-09-05T07:13:16.460Z,19.80
2018-09-05T07:15:44.153Z,19.90
2018-09-05T07:18:11.938Z,20.00
2018-09-05T07:20:39.618Z,20.00
2018-09-05T07:23:07.353Z,20.10
2018-09-05T07:25:35.043Z,20.10
2018-09-05T07:28:02.718Z,20.10
2018-09-05T07:30:30.463Z,20.10
2018-09-05T07:32:58.177Z,20.10
2018-09-05T07:35:26.027Z,20.20
2018-09-05T07:37:53.696Z,20.30
2018-09-05T07:40:21.366Z,20.30
2018-09-05T07:42:49.078Z,20.30
2018-09-05T07:45:16.760Z,20.40
2018-09-05T07:47:44.549Z,20.50
2018-09-05T07:50:12.256Z,20.50
2018-09-05T07:52:39.994Z,20.60
2018-09-05T07:55:07.656Z,20.70
2018-09-05T07:57:35.357Z,20.70
2018-09-05T08:00:03.126Z,20.80
2018-09-05T08:02:30.793Z,20.80
2018-09-05T08:04:58.549Z,20.90
2018-09-05T08:07:26.273Z,20.90
2018-09-05T08:09:53.948Z,21.00
2018-09-05T08:12:21.606Z,21.10
2018-09-05T08:14:49.658Z,21.10
2018-09-05T08:17:17.325Z,21.10
2018-09-05T08:19:45.050Z,21.20
2018-09-05T08:22:12.714Z,21.20
2018-09-05T08:24:40.573Z,21.30
2018-09-05T08:27:09.233Z,21.40
2018-09-05T08:29:37.031Z,21.40
2018-09-05T08:32:04.782Z,21.50
2018-09-05T08:34:32.588Z,21.60
2018-09-05T08:37:00.567Z,21.70
2018-09-05T08:39:27.981Z,21.70
2018-09-05T08:41:55.838Z,21.80
2018-09-05T08:44:23.749Z,21.80
2018-09-05T08:46:51.265Z,22.00
2018-09-05T08:49:18.972Z,22.00
2018-09-05T08:51:46.666Z,22.10
2018-09-05T08:54:14.361Z,22.10
2018-09-05T08:56:42.059Z,22.20
2018-09-05T08:59:09.842Z,22.20
2018-09-05T09:01:37.962Z,22.30
2018-09-05T09:04:05.722Z,22.40
2018-09-05T09:06:33.529Z,22.30
2018-09-05T09:09:01.265Z,22.40
2018-09-05T09:11:29.033Z,22.40
2018-09-05T09:13:56.620Z,22.50
2018-09-05T09:16:24.288Z,22.50
2018-09-05T09:18:52.045Z,22.60
2018-09-05T09:21:19.705Z,22.70
2018-09-05T09:23:47.397Z,22.70
2018-09-05T09:26:15.070Z,22.70
2018-09-05T09:28:42.765Z,22.80
2018-09-05T09:31:10.445Z,22.90
2018-09-05T09:33:38.134Z,23.00
2018-09-05T09:36:05.845Z,23.10
2018-09-05T09:38:33.561Z,23.20
2018-09-05T09:41:01.413Z,23.30
2018-09-05T09:43:29.112Z,23.30
2018-09-05T09:45:56.804Z,23.40
2018-09-05T09:48:24.604Z,23.40
2018-09-05T09:57:38.898Z,23.60
2018-09-05T10:00:07.105Z,23.40
2018-09-05T10:02:40.385Z,23.50
2018-09-05T10:05:13.468Z,23.60
2018-09-05T10:07:46.677Z,23.70
2018-09-05T10:10:20.070Z,23.90
2018-09-05T10:12:56.924Z,23.90
2018-09-05T10:15:30.153Z,24.00
2018-09-05T10:18:03.512Z,24.00
2018-09-05T10:20:31.277Z,24.00
2018-09-05T10:22:58.976Z,24.20
2018-09-05T10:25:26.797Z,24.20
2018-09-05T10:27:54.509Z,24.30
2018-09-05T10:30:22.304Z,24.40
2018-09-05T10:32:50.077Z,24.50
2018-09-05T10:35:17.872Z,24.70
2018-09-05T10:37:45.620Z,24.80
2018-09-05T10:40:13.381Z,25.00
2018-09-05T10:42:41.145Z,25.10
2018-09-05T10:45:08.870Z,25.20
2018-09-05T10:47:36.632Z,24.90
2018-09-05T10:50:04.456Z,24.80
2018-09-05T10:52:32.148Z,24.90
2018-09-05T10:55:00.001Z,25.00
2018-09-05T10:57:27.772Z,25.30
2018-09-05T10:59:55.452Z,25.50
2018-09-05T11:02:23.276Z,25.70
2018-09-05T11:04:51.040Z,25.80
2018-09-05T11:07:18.752Z,26.00
2018-09-05T11:09:47.213Z,26.00
2018-09-05T11:12:15.652Z,26.20
2018-09-05T11:14:44.113Z,26.30
2018-09-05T11:17:12.534Z,26.20
2018-09-05T11:19:40.987Z,26.20
2018-09-05T11:22:09.413Z,26.10
2018-09-05T11:24:37.936Z,26.00
2018-09-05T11:27:06.399Z,25.90
2018-09-05T11:29:34.866Z,25.80
2018-09-05T11:32:03.330Z,25.70
2018-09-05T11:34:31.787Z,25.70
2018-09-05T11:37:00.566Z,26.00
2018-09-05T11:39:29.005Z,26.40
2018-09-05T11:41:57.451Z,26.60
2018-09-05T11:44:25.922Z,26.90
2018-09-05T11:46:54.349Z,26.90
2018-09-05T11:49:22.849Z,26.80
2018-09-05T11:51:51.316Z,26.60
2018-09-05T11:54:19.782Z,26.40
2018-09-05T11:56:48.212Z,26.40
2018-09-05T11:59:16.717Z,26.70
2018-09-05T12:01:45.278Z,27.00
2018-09-05T12:04:13.757Z,27.30
2018-09-05T12:06:42.277Z,27.50
2018-09-05T12:09:11.909Z,27.70
2018-09-05T12:11:40.454Z,28.00
2018-09-05T12:14:09.585Z,28.20
2018-09-05T12:16:38.157Z,28.50
2018-09-05T12:19:07.505Z,28.70
2018-09-05T12:21:35.969Z,28.90
2018-09-05T12:24:04.749Z,29.10
2018-09-05T12:26:33.440Z,29.20
2018-09-05T12:29:03.441Z,29.40
2018-09-05T12:31:31.909Z,29.60
2018-09-05T12:34:00.338Z,29.70
2018-09-05T12:36:28.813Z,29.50
2018-09-05T12:38:57.325Z,29.10
2018-09-05T12:41:25.785Z,28.80
2018-09-05T12:43:54.273Z,28.50
2018-09-05T12:46:22.705Z,28.30
2018-09-05T12:48:51.165Z,28.30
2018-09-05T12:51:19.642Z,28.60
2018-09-05T12:53:48.090Z,29.10
2018-09-05T12:56:16.543Z,29.60
2018-09-05T12:58:45.002Z,29.80
2018-09-05T13:01:13.474Z,29.70
2018-09-05T13:03:42.374Z,29.80
2018-09-05T13:06:10.992Z,30.00
2018-09-05T13:08:39.642Z,30.10
2018-09-05T13:11:08.176Z,30.00
2018-09-05T13:13:36.676Z,29.70
2018-09-05T13:16:05.211Z,29.40
2018-09-05T13:18:33.683Z,29.20
2018-09-05T13:21:02.424Z,29.20
2018-09-05T13:23:31.004Z,29.20
2018-09-05T13:25:59.475Z,29.20
2018-09-05T13:28:28.237Z,29.30
2018-09-05T13:30:56.693Z,29.60
2018-09-05T13:33:25.165Z,29.70
2018-09-05T13:35:53.633Z,29.80
2018-09-05T13:38:22.222Z,29.90
2018-09-05T13:40:50.683Z,30.00
2018-09-05T13:43:19.273Z,30.20
2018-09-05T13:45:48.708Z,30.40
2018-09-05T13:48:17.281Z,30.40
2018-09-05T13:50:46.038Z,30.40
2018-09-05T13:53:14.572Z,30.00
2018-09-05T13:55:43.098Z,29.70
2018-09-05T13:58:11.631Z,29.30
2018-09-05T14:00:40.158Z,29.00
2018-09-05T14:03:08.598Z,29.30
2018-09-05T14:05:37.117Z,29.70
2018-09-05T14:08:05.932Z,30.10
2018-09-05T14:10:34.423Z,30.50
2018-09-05T14:13:02.914Z,30.80
2018-09-05T14:15:31.348Z,31.10
2018-09-05T14:17:59.857Z,31.20
2018-09-05T14:20:28.402Z,31.40
2018-09-05T14:22:56.822Z,31.60
2018-09-05T14:25:25.403Z,31.90
2018-09-05T14:27:53.988Z,32.10
2018-09-05T14:30:22.573Z,32.20
2018-09-05T14:32:51.048Z,32.40
2018-09-05T14:35:19.637Z,32.50
2018-09-05T14:37:48.157Z,32.50
2018-09-05T14:40:16.601Z,32.50
2018-09-05T14:42:45.066Z,32.50
2018-09-05T14:45:13.649Z,32.60
2018-09-05T14:47:42.097Z,32.70
2018-09-05T14:50:10.582Z,33.00
2018-09-05T14:52:39.125Z,33.20
2018-09-05T14:55:06.846Z,33.20
2018-09-05T14:57:35.309Z,33.20
2018-09-05T15:00:04.108Z,33.50
2018-09-05T15:02:32.559Z,34.10
2018-09-05T15:05:01.070Z,34.90
2018-09-05T15:07:30.648Z,35.60
2018-09-05T15:09:59.145Z,36.10
2018-09-05T15:12:27.672Z,36.60
2018-09-05T15:14:56.225Z,37.00
2018-09-05T15:17:24.715Z,37.40
2018-09-05T15:19:54.251Z,37.70
2018-09-05T15:22:23.621Z,37.90
2018-09-05T15:24:52.158Z,37.90
2018-09-05T15:27:20.656Z,37.70
2018-09-05T15:29:49.385Z,37.40
2018-09-05T15:32:17.140Z,37.10
2018-09-05T15:34:45.912Z,36.80
2018-09-05T15:37:13.716Z,36.60
2018-09-05T15:39:41.419Z,36.40
2018-09-05T15:42:09.118Z,36.30
2018-09-05T15:44:36.780Z,36.20
2018-09-05T15:47:04.528Z,35.60
2018-09-05T15:49:32.989Z,34.70
2018-09-05T15:52:00.737Z,33.90
2018-09-05T15:54:28.409Z,33.10
2018-09-05T15:56:56.078Z,32.50
2018-09-05T15:59:24.042Z,31.90
2018-09-05T16:01:53.565Z,31.40
2018-09-05T16:04:23.105Z,31.10
2018-09-05T16:06:51.590Z,31.00
2018-09-05T16:09:20.182Z,30.80
2018-09-05T16:11:48.759Z,30.60
2018-09-05T16:14:16.432Z,30.20
2018-09-05T16:16:44.132Z,29.80
2018-09-05T16:19:11.800Z,29.30
2018-09-05T16:21:39.501Z,28.90
2018-09-05T16:24:07.253Z,28.50
2018-09-05T16:26:34.961Z,28.10
2018-09-05T16:29:02.688Z,27.80
2018-09-05T16:33:54.146Z,27.50
2018-09-05T16:36:21.981Z,26.90
2018-09-05T16:38:50.388Z,26.70
2018-09-05T16:41:18.161Z,26.50
2018-09-05T16:43:45.845Z,26.40
2018-09-05T16:46:13.682Z,26.20
2018-09-05T16:48:41.510Z,26.00
2018-09-05T16:51:09.625Z,25.90
2018-09-05T16:53:37.794Z,25.70
2018-09-05T16:56:05.769Z,25.60
2018-09-05T16:58:35.343Z,25.40
2018-09-05T17:01:03.174Z,25.20
2018-09-05T17:03:30.854Z,25.10
2018-09-05T17:05:58.641Z,25.00
2018-09-05T17:08:26.399Z,24.80
2018-09-05T17:10:54.183Z,24.70
2018-09-05T17:13:21.933Z,24.60
2018-09-05T17:15:49.704Z,24.40
2018-09-05T17:18:17.529Z,24.30
2018-09-05T17:20:47.193Z,24.20
2018-09-05T17:23:15.106Z,24.10
2018-09-05T17:25:42.916Z,24.00
2018-09-05T17:28:10.637Z,23.90
2018-09-05T17:30:38.448Z,23.80
2018-09-05T17:33:06.436Z,23.70
2018-09-05T17:35:34.288Z,23.60
2018-09-05T17:38:02.013Z,23.50
2018-09-05T17:40:29.821Z,23.40
2018-09-05T17:42:57.532Z,23.30
2018-09-05T17:45:25.566Z,23.30
2018-09-05T17:47:53.297Z,23.20
2018-09-05T17:50:21.203Z,23.10
2018-09-05T17:52:48.964Z,23.00
2018-09-05T17:55:16.805Z,22.90
2018-09-05T17:57:44.573Z,22.80
2018-09-05T18:00:12.321Z,22.70
2018-09-05T18:02:40.121Z,22.70
2018-09-05T18:05:07.910Z,22.60
2018-09-05T18:07:35.624Z,22.50
2018-09-05T18:10:03.603Z,22.50
2018-09-05T18:12:31.184Z,22.40
2018-09-05T18:14:58.920Z,22.40
2018-09-05T18:17:27.718Z,22.30
2018-09-05T18:19:55.556Z,22.30
2018-09-05T18:22:23.323Z,22.20
2018-09-05T18:24:51.121Z,22.20
2018-09-05T18:27:18.856Z,22.10
2018-09-05T18:29:46.569Z,22.10
2018-09-05T18:32:14.248Z,22.00
2018-09-05T18:34:42.200Z,22.00
2018-09-05T18:37:10.969Z,21.90
2018-09-05T18:39:38.645Z,21.80
2018-09-05T18:42:06.386Z,21.80
2018-09-05T18:44:34.057Z,21.70
2018-09-05T18:47:01.837Z,21.60
2018-09-05T18:49:29.557Z,21.60
2018-09-05T18:51:57.409Z,21.50
2018-09-05T18:54:25.177Z,21.40
2018-09-05T18:56:52.997Z,21.40
2018-09-05T18:59:20.746Z,21.30
2018-09-05T19:01:48.485Z,21.30
2018-09-05T19:04:16.392Z,21.20
2018-09-05T19:06:44.057Z,21.20
2018-09-05T19:09:12.736Z,21.10
2018-09-05T19:11:40.765Z,21.00
2018-09-05T19:14:09.541Z,21.00
2018-09-05T19:16:37.257Z,20.90
2018-09-05T19:19:04.984Z,20.90
2018-09-05T19:21:32.749Z,20.80
2018-09-05T19:24:00.405Z,20.80
2018-09-05T19:26:28.118Z,20.70
2018-09-05T19:28:55.832Z,20.70
2018-09-05T19:31:23.544Z,20.60
2018-09-05T19:33:51.303Z,20.60
2018-09-05T19:36:18.965Z,20.60
2018-09-05T19:39:50.285Z,20.50
2018-09-05T19:42:17.971Z,20.50
2018-09-05T19:44:45.691Z,20.40
2018-09-05T19:47:13.429Z,20.30
2018-09-05T19:49:41.101Z,20.30
2018-09-05T19:52:09.138Z,20.20
2018-09-05T19:54:36.800Z,20.20
2018-09-05T19:57:04.497Z,20.10
2018-09-05T19:59:32.185Z,20.10
2018-09-05T20:01:59.857Z,20.10
2018-09-05T20:04:27.562Z,20.00
2018-09-05T20:06:55.293Z,20.10
2018-09-05T20:09:23.085Z,20.00
2018-09-05T20:11:50.828Z,20.00
2018-09-05T20:14:18.613Z,20.00
2018-09-05T20:16:46.329Z,20.00
2018-09-05T20:19:14.247Z,20.00
2018-09-05T20:21:41.945Z,20.00
2018-09-05T20:24:09.748Z,19.90
2018-09-05T20:26:37.497Z,19.90
2018-09-05T20:29:05.310Z,19.90
2018-09-05T20:31:33.037Z,19.80
2018-09-05T20:34:00.904Z,19.70
2018-09-05T20:36:29.733Z,19.70
2018-09-05T20:38:57.757Z,19.60
2018-09-05T20:41:25.561Z,19.60
2018-09-05T20:43:53.296Z,19.50
2018-09-05T20:46:21.026Z,19.50
2018-09-05T20:48:48.901Z,19.40
2018-09-05T20:51:16.687Z,19.40
2018-09-05T20:53:44.452Z,19.40
2018-09-05T20:56:12.229Z,19.30
2018-09-05T20:58:40.084Z,19.30
2018-09-05T21:01:07.933Z,19.20
2018-09-05T21:03:35.682Z,19.20
2018-09-05T21:06:03.512Z,19.20
2018-09-05T21:08:31.231Z,19.10
2018-09-05T21:10:59.042Z,19.10
2018-09-05T21:13:26.792Z,19.10
2018-09-05T21:15:54.537Z,19.00
2018-09-05T21:18:22.336Z,19.00
2018-09-05T21:20:50.357Z,19.00
2018-09-05T21:23:18.112Z,19.00
2018-09-05T21:25:45.917Z,19.00
2018-09-05T21:28:13.645Z,19.00
2018-09-05T21:30:42.325Z,19.00
2018-09-05T21:33:10.089Z,18.90
2018-09-05T21:35:37.885Z,18.90
2018-09-05T21:38:05.613Z,18.80
2018-09-05T21:40:33.420Z,18.80
2018-09-05T21:43:01.140Z,18.80
2018-09-05T21:45:28.924Z,18.70
2018-09-05T21:47:56.676Z,18.70
2018-09-05T21:50:24.482Z,18.70
2018-09-05T21:52:52.277Z,18.60
2018-09-05T21:55:20.025Z,18.60
2018-09-05T21:57:47.781Z,18.60
2018-09-05T22:00:16.586Z,18.60
2018-09-05T22:02:44.353Z,18.60
2018-09-05T22:05:12.061Z,18.50
2018-09-05T22:07:39.884Z,18.50
2018-09-05T22:10:07.646Z,18.50
2018-09-05T22:12:35.648Z,18.40
2018-09-05T22:15:03.329Z,18.40
2018-09-05T22:17:31.090Z,18.30
2018-09-05T22:19:58.882Z,18.30
2018-09-05T22:22:26.636Z,18.20
2018-09-05T22:24:54.529Z,18.20
2018-09-05T22:27:22.273Z,18.20
2018-09-05T22:29:50.009Z,18.20
2018-09-05T22:32:17.817Z,18.20
2018-09-05T22:34:45.528Z,18.20
2018-09-05T22:37:13.344Z,18.20
2018-09-05T22:39:41.128Z,18.20
2018-09-05T22:42:11.853Z,18.20
2018-09-05T22:44:45.257Z,18.20
2018-09-05T22:47:19.680Z,18.10
2018-09-05T22:51:02.733Z,18.10
2018-09-05T22:55:51.315Z,18.10
2018-09-05T22:59:30.754Z,18.00
2018-09-05T23:02:10.525Z,17.80
2018-09-05T23:04:51.343Z,17.80
2018-09-05T23:08:04.451Z,17.70
2018-09-05T23:10:44.298Z,17.70
2018-09-05T23:14:26.201Z,17.70
2018-09-05T23:17:09.883Z,17.60
2018-09-05T23:19:54.914Z,17.60
2018-09-05T23:22:24.523Z,17.60
2018-09-05T23:24:53.052Z,17.60
2018-09-05T23:27:21.550Z,17.60
2018-09-05T23:29:50.055Z,17.50
2018-09-05T23:32:18.560Z,17.50
2018-09-05T23:34:47.086Z,17.50
2018-09-05T23:37:15.566Z,17.50
2018-09-05T23:39:44.101Z,17.50
2018-09-05T23:42:12.646Z,17.40
2018-09-05T23:44:41.111Z,17.30
2018-09-05T23:47:09.759Z,17.30
2018-09-05T23:49:38.355Z,17.30
2018-09-05T23:52:06.906Z,17.20
2018-09-05T23:54:35.492Z,17.20
2018-09-05T23:57:05.223Z,17.10
2018-09-05T23:59:33.783Z,17.20
